createdAt,value
2019-05-28T00:01:24.928Z,11.33
2019-05-28T00:03:53.366Z,9.40
2019-05-28T00:06:21.765Z,9.43
2019-05-28T00:08:50.204Z,11.47
2019-05-28T00:11:18.645Z,11.83
2019-05-28T00:13:47.066Z,11.37
2019-05-28T00:16:15.752Z,10.77
2019-05-28T00:18:44.167Z,11.93
2019-05-28T00:21:12.563Z,11.97
2019-05-28T00:23:41.196Z,11.90
2019-05-28T00:26:09.603Z,11.93
2019-05-28T00:28:38.029Z,11.93
2019-05-28T00:31:06.537Z,10.63
2019-05-28T00:33:34.940Z,10.87
2019-05-28T00:36:03.333Z,9.43
2019-05-28T00:38:31.779Z,11.67
2019-05-28T00:41:00.183Z,11.23
2019-05-28T00:43:28.647Z,10.90
2019-05-28T00:45:57.079Z,11.10
2019-05-28T00:48:25.554Z,10.70
2019-05-28T00:50:53.951Z,11.70
2019-05-28T00:53:22.383Z,12.07
2019-05-28T00:55:51.455Z,11.07
2019-05-28T00:58:20.197Z,10.70
2019-05-28T01:00:50.143Z,11.70
2019-05-28T01:03:18.557Z,11.00
2019-05-28T01:05:47.700Z,11.00
2019-05-28T01:08:16.388Z,10.70
2019-05-28T01:10:45.458Z,9.97
2019-05-28T01:13:14.077Z,10.17
2019-05-28T01:15:42.518Z,9.23
2019-05-28T01:18:10.971Z,8.73
2019-05-28T01:20:39.389Z,7.90
2019-05-28T01:23:07.809Z,8.03
2019-05-28T01:25:36.211Z,8.50
2019-05-28T01:28:05.241Z,9.03
2019-05-28T01:30:33.905Z,8.73
2019-05-28T01:33:02.303Z,7.53
2019-05-28T01:35:30.698Z,6.33
2019-05-28T01:37:59.315Z,7.17
2019-05-28T01:40:27.693Z,5.77
2019-05-28T01:42:56.089Z,6.47
2019-05-28T01:45:24.867Z,6.67
2019-05-28T01:47:53.340Z,6.50
2019-05-28T01:50:21.905Z,6.50
2019-05-28T01:52:50.344Z,6.27
2019-05-28T01:55:18.785Z,5.83
2019-05-28T01:57:47.189Z,5.97
2019-05-28T02:00:16.851Z,6.23
2019-05-28T02:02:45.480Z,6.03
2019-05-28T02:05:14.286Z,6.00
2019-05-28T02:07:43.023Z,6.40
2019-05-28T02:10:12.357Z,6.23
2019-05-28T02:12:40.819Z,6.07
2019-05-28T02:15:11.487Z,7.20
2019-05-28T02:17:39.892Z,7.40
2019-05-28T02:20:09.643Z,7.30
2019-05-28T02:22:38.058Z,7.07
2019-05-28T02:25:10.397Z,7.73
2019-05-28T02:27:38.802Z,8.63
2019-05-28T02:30:11.665Z,8.30
2019-05-28T02:32:40.102Z,7.83
2019-05-28T02:35:09.140Z,8.07
2019-05-28T02:37:37.685Z,8.50
2019-05-28T02:40:07.227Z,9.10
2019-05-28T02:42:35.700Z,8.93
2019-05-28T02:45:06.859Z,7.30
2019-05-28T02:47:35.272Z,8.27
2019-05-28T02:50:06.256Z,8.13
2019-05-28T02:52:36.546Z,7.80
2019-05-28T02:55:25.742Z,8.30
2019-05-28T02:57:54.518Z,8.80
2019-05-28T03:00:23.350Z,7.83
2019-05-28T03:02:53.689Z,7.10
2019-05-28T03:05:22.181Z,4.70
2019-05-28T03:07:55.663Z,5.17
2019-05-28T03:11:02.573Z,5.33
2019-05-28T03:13:07.504Z,6.80
2019-05-28T03:15:38.973Z,6.20
2019-05-28T03:18:09.977Z,7.00
2019-05-28T03:20:40.216Z,6.60
2019-05-28T03:23:11.357Z,5.80
2019-05-28T03:25:40.524Z,6.80
2019-05-28T03:28:11.429Z,6.17
2019-05-28T03:30:39.838Z,5.93
2019-05-28T03:33:08.254Z,7.17
2019-05-28T03:35:38.797Z,6.53
2019-05-28T03:38:08.134Z,5.50
2019-05-28T03:40:44.771Z,5.07
2019-05-28T03:43:13.609Z,4.97
2019-05-28T03:45:42.180Z,5.97
2019-05-28T03:48:11.134Z,4.83
2019-05-28T03:50:39.535Z,5.23
2019-05-28T03:53:07.932Z,4.63
2019-05-28T03:55:36.484Z,4.20
2019-05-28T03:58:06.792Z,4.93
2019-05-28T04:00:35.191Z,4.80
2019-05-28T04:03:03.802Z,6.17
2019-05-28T04:05:32.187Z,7.60
2019-05-28T04:08:00.658Z,7.10
2019-05-28T04:10:29.196Z,8.00
2019-05-28T04:12:57.821Z,7.80
2019-05-28T04:15:26.233Z,9.30
2019-05-28T04:17:54.713Z,10.33
2019-05-28T04:20:23.259Z,12.70
2019-05-28T04:22:51.663Z,11.27
2019-05-28T04:25:20.211Z,11.63
2019-05-28T04:27:48.682Z,10.83
2019-05-28T04:30:17.828Z,12.97
2019-05-28T04:32:46.464Z,14.00
2019-05-28T04:35:15.155Z,12.27
2019-05-28T04:37:43.509Z,13.50
2019-05-28T04:40:13.764Z,12.73
2019-05-28T04:42:42.171Z,12.33
2019-05-28T04:45:11.022Z,12.07
2019-05-28T04:47:39.455Z,11.00
2019-05-28T04:50:08.515Z,11.50
2019-05-28T04:52:36.923Z,11.10
2019-05-28T04:55:06.819Z,11.60
2019-05-28T04:57:35.225Z,9.80
2019-05-28T05:00:08.509Z,11.23
2019-05-28T05:02:37.024Z,11.20
2019-05-28T05:05:09.080Z,10.70
2019-05-28T05:07:37.490Z,10.27
2019-05-28T05:10:07.433Z,9.27
2019-05-28T05:12:35.848Z,9.20
2019-05-28T05:15:05.547Z,8.10
2019-05-28T05:17:33.973Z,8.73
2019-05-28T05:20:02.577Z,7.90
2019-05-28T05:22:30.980Z,6.90
2019-05-28T05:25:01.022Z,6.80
2019-05-28T05:27:29.421Z,5.30
2019-05-28T05:29:57.813Z,4.83
2019-05-28T05:32:27.895Z,4.37
2019-05-28T05:34:56.347Z,4.60
2019-05-28T05:37:25.023Z,4.73
2019-05-28T05:39:53.546Z,4.00
2019-05-28T05:42:21.947Z,4.57
2019-05-28T05:44:50.424Z,4.13
2019-05-28T05:47:19.040Z,3.83
2019-05-28T05:49:47.438Z,3.63
2019-05-28T05:52:15.936Z,3.13
2019-05-28T05:54:44.551Z,3.60
2019-05-28T05:57:13.034Z,2.93
2019-05-28T05:59:41.433Z,3.40
2019-05-28T06:02:09.991Z,3.63
2019-05-28T06:04:38.393Z,2.97
2019-05-28T06:07:06.796Z,2.97
2019-05-28T06:09:35.221Z,3.43
2019-05-28T06:12:03.693Z,2.87
2019-05-28T06:14:32.092Z,2.73
2019-05-28T06:17:00.781Z,2.50
2019-05-28T06:19:29.189Z,2.60
2019-05-28T06:21:57.589Z,2.77
2019-05-28T06:24:26.128Z,2.83
2019-05-28T06:26:54.524Z,2.63
2019-05-28T06:29:22.924Z,2.70
2019-05-28T06:31:51.460Z,2.40
2019-05-28T06:34:19.927Z,2.43
2019-05-28T06:36:48.329Z,2.70
2019-05-28T06:39:16.765Z,2.50
2019-05-28T06:41:45.162Z,2.03
2019-05-28T06:44:13.561Z,2.30
2019-05-28T06:46:42.005Z,2.20
2019-05-28T06:49:10.407Z,2.10
2019-05-28T06:51:38.813Z,2.50
2019-05-28T06:54:07.474Z,2.20
2019-05-28T06:56:35.944Z,2.30
2019-05-28T06:59:04.493Z,2.30
2019-05-28T07:01:33.011Z,2.10
2019-05-28T07:04:13.358Z,2.30
2019-05-28T07:06:31.567Z,2.30
2019-05-28T07:09:00.003Z,2.33
2019-05-28T07:11:28.438Z,2.20
2019-05-28T07:13:56.831Z,2.20
2019-05-28T07:16:25.435Z,2.30
2019-05-28T07:18:53.835Z,2.20
2019-05-28T07:21:22.227Z,2.00
2019-05-28T07:23:50.768Z,1.97
2019-05-28T07:26:19.163Z,1.90
2019-05-28T07:28:47.563Z,1.70
2019-05-28T07:31:16.117Z,2.10
2019-05-28T07:33:44.739Z,1.90
2019-05-28T07:36:13.161Z,1.90
2019-05-28T07:38:41.863Z,1.87
2019-05-28T07:41:10.273Z,1.70
2019-05-28T07:43:38.737Z,1.87
2019-05-28T07:46:07.177Z,1.90
2019-05-28T07:48:35.575Z,1.80
2019-05-28T07:51:03.965Z,2.23
2019-05-28T07:53:39.882Z,1.93
2019-05-28T07:56:04.653Z,2.00
2019-05-28T07:58:33.039Z,1.90
2019-05-28T08:01:01.475Z,1.80
2019-05-28T08:03:29.953Z,2.13
2019-05-28T08:05:58.345Z,1.80
2019-05-28T08:08:27.933Z,1.87
2019-05-28T08:10:56.903Z,1.90
2019-05-28T08:13:39.472Z,2.00
2019-05-28T08:15:55.541Z,2.30
2019-05-28T08:18:23.963Z,1.90
2019-05-28T08:20:52.372Z,2.03
2019-05-28T08:23:21.471Z,1.87
2019-05-28T08:25:49.867Z,1.90
2019-05-28T08:28:20.345Z,1.87
2019-05-28T08:30:48.868Z,2.07
2019-05-28T08:33:17.272Z,2.00
2019-05-28T08:35:45.670Z,2.07
2019-05-28T08:38:14.396Z,1.90
2019-05-28T08:40:42.931Z,1.73
2019-05-28T08:43:11.395Z,4.20
2019-05-28T08:45:42.569Z,1.80
2019-05-28T08:48:10.145Z,1.83
2019-05-28T08:50:38.583Z,2.03
2019-05-28T08:53:07.150Z,1.60
2019-05-28T08:55:35.609Z,1.40
2019-05-28T08:58:04.179Z,1.60
2019-05-28T09:00:37.897Z,1.70
2019-05-28T09:03:06.578Z,1.60
2019-05-28T09:05:35.037Z,1.50
2019-05-28T09:08:03.801Z,1.70
2019-05-28T09:10:32.301Z,1.53
2019-05-28T09:13:00.726Z,1.60
2019-05-28T09:15:29.180Z,1.90
2019-05-28T09:17:57.579Z,2.53
2019-05-28T09:20:26.213Z,1.47
2019-05-28T09:22:54.717Z,1.57
2019-05-28T09:25:23.377Z,2.20
2019-05-28T09:27:51.813Z,1.70
2019-05-28T09:30:20.931Z,2.20
2019-05-28T09:32:49.656Z,3.17
2019-05-28T09:35:18.345Z,2.77
2019-05-28T09:37:46.966Z,1.70
2019-05-28T09:40:16.291Z,2.07
2019-05-28T09:42:44.706Z,1.90
2019-05-28T09:45:22.683Z,2.00
2019-05-28T09:47:44.433Z,2.00
2019-05-28T09:50:29.290Z,1.90
2019-05-28T09:52:54.601Z,2.03
2019-05-28T09:55:14.636Z,1.83
2019-05-28T09:57:47.886Z,2.07
2019-05-28T10:00:18.125Z,2.30
2019-05-28T10:02:46.610Z,2.27
2019-05-28T10:05:15.253Z,1.80
2019-05-28T10:07:43.736Z,1.73
2019-05-28T10:10:12.606Z,1.50
2019-05-28T10:12:40.991Z,1.33
2019-05-28T10:15:09.946Z,1.50
2019-05-28T10:17:38.349Z,1.40
2019-05-28T10:20:07.991Z,1.20
2019-05-28T10:22:36.620Z,1.50
2019-05-28T10:25:09.865Z,1.60
2019-05-28T10:27:38.509Z,1.23
2019-05-28T10:30:10.073Z,1.40
2019-05-28T10:32:38.468Z,1.07
2019-05-28T10:35:07.608Z,1.70
2019-05-28T10:37:36.186Z,1.93
2019-05-28T10:40:07.228Z,2.20
2019-05-28T10:42:35.630Z,2.60
2019-05-28T10:45:09.872Z,2.70
2019-05-28T10:47:38.541Z,2.70
2019-05-28T10:50:08.895Z,2.37
2019-05-28T10:52:37.773Z,2.40
2019-05-28T10:55:08.181Z,1.90
2019-05-28T10:57:36.709Z,1.50
2019-05-28T11:00:09.691Z,2.13
2019-05-28T11:02:38.154Z,2.73
2019-05-28T11:05:09.159Z,2.50
2019-05-28T11:07:37.947Z,1.60
2019-05-28T11:10:22.521Z,1.47
2019-05-28T11:12:37.915Z,1.80
2019-05-28T11:15:10.583Z,2.20
2019-05-28T11:17:39.230Z,2.40
2019-05-28T11:20:09.449Z,3.37
2019-05-28T11:22:38.149Z,4.17
2019-05-28T11:25:08.232Z,4.60
2019-05-28T11:27:36.649Z,6.03
2019-05-28T11:30:10.672Z,5.67
2019-05-28T11:32:39.130Z,6.93
2019-05-28T11:35:08.182Z,5.80
2019-05-28T11:37:36.776Z,5.97
2019-05-28T11:40:10.737Z,6.03
2019-05-28T11:42:40.051Z,4.97
2019-05-28T11:45:13.118Z,5.43
2019-05-28T11:47:41.737Z,5.33
2019-05-28T11:50:10.884Z,5.10
2019-05-28T11:52:39.641Z,5.97
2019-05-28T11:55:11.387Z,6.10
2019-05-28T11:57:39.897Z,6.33
2019-05-28T12:00:08.768Z,6.00
2019-05-28T12:02:37.165Z,5.20
2019-05-28T12:05:08.101Z,6.63
2019-05-28T12:07:36.609Z,6.00
2019-05-28T12:10:08.828Z,5.07
2019-05-28T12:12:40.240Z,6.07
2019-05-28T12:15:11.884Z,5.90
2019-05-28T12:17:43.383Z,5.53
2019-05-28T12:20:13.182Z,6.77
2019-05-28T12:22:42.443Z,8.67
2019-05-28T12:25:11.780Z,7.17
2019-05-28T12:27:40.182Z,8.13
2019-05-28T12:30:10.231Z,8.00
2019-05-28T12:32:38.629Z,7.33
2019-05-28T12:35:23.861Z,7.80
2019-05-28T12:37:47.840Z,7.40
2019-05-28T12:40:09.335Z,6.90
2019-05-28T12:42:37.734Z,7.30
2019-05-28T12:45:10.195Z,7.00
2019-05-28T12:47:38.783Z,7.97
2019-05-28T12:50:18.913Z,8.17
2019-05-28T12:52:39.682Z,8.37
2019-05-28T12:55:09.958Z,8.30
2019-05-28T12:57:38.363Z,8.47
2019-05-28T13:00:12.362Z,9.27
2019-05-28T13:02:40.826Z,8.23
2019-05-28T13:05:12.379Z,9.93
2019-05-28T13:07:40.877Z,9.27
2019-05-28T13:10:09.750Z,7.50
2019-05-28T13:12:38.196Z,9.17
2019-05-28T13:15:08.041Z,9.20
2019-05-28T13:17:36.446Z,9.10
2019-05-28T13:20:08.730Z,10.00
2019-05-28T13:22:37.331Z,11.60
2019-05-28T13:25:07.559Z,11.63
2019-05-28T13:27:35.955Z,12.23
2019-05-28T13:30:07.946Z,11.83
2019-05-28T13:32:36.516Z,11.23
2019-05-28T13:35:07.900Z,10.87
2019-05-28T13:37:36.714Z,10.53
2019-05-28T13:40:10.484Z,10.20
2019-05-28T13:42:38.892Z,9.93
2019-05-28T13:45:08.270Z,9.83
2019-05-28T13:47:36.780Z,10.03
2019-05-28T13:50:07.293Z,10.10
2019-05-28T13:52:35.740Z,10.07
2019-05-28T13:55:10.216Z,10.03
2019-05-28T13:57:39.665Z,10.37
2019-05-28T14:00:11.005Z,9.93
2019-05-28T14:02:45.521Z,7.87
2019-05-28T14:05:11.179Z,7.80
2019-05-28T14:07:39.580Z,8.10
2019-05-28T14:10:09.060Z,6.70
2019-05-28T14:12:37.458Z,7.03
2019-05-28T14:15:10.747Z,4.50
2019-05-28T14:17:39.145Z,5.53
2019-05-28T14:20:10.529Z,5.43
2019-05-28T14:22:39.153Z,6.93
2019-05-28T14:25:09.280Z,11.30
2019-05-28T14:27:37.687Z,4.73
2019-05-28T14:30:09.158Z,5.10
2019-05-28T14:32:37.558Z,4.30
2019-05-28T14:35:07.797Z,4.60
2019-05-28T14:37:36.227Z,4.67
2019-05-28T14:40:07.181Z,4.40
2019-05-28T14:42:35.564Z,4.47
2019-05-28T14:45:06.949Z,3.70
2019-05-28T14:47:36.994Z,3.80
2019-05-28T14:50:07.591Z,3.37
2019-05-28T14:52:36.250Z,3.67
2019-05-28T14:55:09.315Z,3.63
2019-05-28T14:57:37.916Z,4.10
2019-05-28T15:00:08.548Z,4.03
2019-05-28T15:02:37.037Z,3.97
2019-05-28T15:05:08.009Z,3.90
2019-05-28T15:07:36.641Z,3.60
2019-05-28T15:10:10.723Z,3.23
2019-05-28T15:12:39.384Z,3.17
2019-05-28T15:15:10.854Z,3.03
2019-05-28T15:17:39.238Z,3.10
2019-05-28T15:20:08.727Z,3.30
2019-05-28T15:22:37.525Z,4.10
2019-05-28T15:25:09.454Z,3.20
2019-05-28T15:27:38.055Z,3.13
2019-05-28T15:30:09.513Z,3.53
2019-05-28T15:32:38.087Z,3.70
2019-05-28T15:35:10.736Z,4.57
2019-05-28T15:37:39.320Z,5.67
2019-05-28T15:40:08.533Z,5.60
2019-05-28T15:42:37.247Z,3.53
2019-05-28T15:45:09.383Z,3.50
2019-05-28T15:47:39.244Z,4.10
2019-05-28T15:50:08.872Z,4.13
2019-05-28T15:52:37.564Z,4.00
2019-05-28T15:55:07.673Z,4.50
2019-05-28T15:57:36.113Z,4.50
2019-05-28T16:00:32.122Z,4.07
2019-05-28T16:03:00.555Z,4.00
2019-05-28T16:05:28.953Z,4.00
2019-05-28T16:07:57.346Z,3.90
2019-05-28T16:10:26.177Z,3.90
2019-05-28T16:12:56.107Z,3.83
2019-05-28T16:15:24.524Z,3.90
2019-05-28T16:17:53.114Z,4.50
2019-05-28T16:20:21.949Z,4.57
2019-05-28T16:22:50.378Z,4.60
2019-05-28T16:25:19.166Z,4.07
2019-05-28T16:27:47.642Z,4.20
2019-05-28T16:30:16.476Z,3.90
2019-05-28T16:32:44.927Z,4.50
2019-05-28T16:35:13.778Z,4.80
2019-05-28T16:37:42.184Z,5.40
2019-05-28T16:40:15.813Z,4.87
2019-05-28T16:42:41.988Z,4.20
2019-05-28T16:45:10.796Z,4.63
2019-05-28T16:47:39.244Z,3.83
2019-05-28T16:50:08.581Z,3.40
2019-05-28T16:52:36.986Z,43.90
2019-05-28T16:55:06.570Z,4.20
2019-05-28T16:57:35.269Z,3.07
2019-05-28T17:00:05.766Z,3.00
2019-05-28T17:02:34.199Z,2.80
2019-05-28T17:05:02.740Z,2.70
2019-05-28T17:07:31.210Z,2.50
2019-05-28T17:09:59.771Z,2.33
2019-05-28T17:12:28.490Z,2.60
2019-05-28T17:14:56.922Z,2.60
2019-05-28T17:17:25.490Z,2.40
2019-05-28T17:19:53.886Z,2.67
2019-05-28T17:22:22.290Z,3.03
2019-05-28T17:24:50.735Z,2.90
2019-05-28T17:27:19.204Z,2.77
2019-05-28T17:29:50.607Z,2.80
2019-05-28T17:32:17.760Z,3.00
2019-05-28T17:34:46.158Z,3.17
2019-05-28T17:37:14.563Z,2.90
2019-05-28T17:39:43.146Z,2.43
2019-05-28T17:42:11.560Z,2.77
2019-05-28T17:44:39.984Z,4.50
2019-05-28T17:47:08.433Z,2.30
2019-05-28T17:49:37.107Z,2.90
2019-05-28T17:52:05.553Z,2.70
2019-05-28T17:54:34.142Z,2.60
2019-05-28T17:57:02.522Z,2.37
2019-05-28T17:59:30.920Z,2.70
2019-05-28T18:01:59.363Z,2.80
2019-05-28T18:04:27.758Z,3.70
2019-05-28T18:06:56.179Z,2.93
2019-05-28T18:09:24.623Z,3.60
2019-05-28T18:11:53.025Z,3.50
2019-05-28T18:14:23.721Z,3.10
2019-05-28T18:16:51.587Z,2.47
2019-05-28T18:19:20.058Z,2.40
2019-05-28T18:21:48.456Z,2.63
2019-05-28T18:24:16.890Z,2.40
2019-05-28T18:26:45.292Z,2.57
2019-05-28T18:29:13.711Z,2.50
2019-05-28T18:31:45.150Z,2.30
2019-05-28T18:34:13.714Z,2.00
2019-05-28T18:36:42.124Z,2.33
2019-05-28T18:39:10.558Z,2.00
2019-05-28T18:41:38.965Z,1.70
2019-05-28T18:44:07.385Z,1.90
2019-05-28T18:46:35.891Z,2.40
2019-05-28T18:49:04.359Z,2.27
2019-05-28T18:51:32.760Z,1.90
2019-05-28T18:54:01.221Z,2.13
2019-05-28T18:56:29.791Z,2.10
2019-05-28T18:58:58.258Z,1.37
2019-05-28T19:01:26.843Z,1.70
2019-05-28T19:03:55.299Z,1.70
2019-05-28T19:06:23.653Z,1.90
2019-05-28T19:08:52.084Z,2.10
2019-05-28T19:11:34.887Z,1.63
2019-05-28T19:13:50.614Z,1.70
2019-05-28T19:16:19.142Z,2.07
2019-05-28T19:18:47.546Z,2.00
2019-05-28T19:21:16.117Z,2.00
2019-05-28T19:23:44.620Z,1.90
2019-05-28T19:26:13.014Z,1.77
2019-05-28T19:28:41.415Z,1.73
2019-05-28T19:31:09.872Z,2.07
2019-05-28T19:33:38.442Z,4.30
2019-05-28T19:36:08.351Z,2.67
2019-05-28T19:38:57.583Z,3.10
2019-05-28T19:41:25.979Z,3.27
2019-05-28T19:43:54.425Z,2.80
2019-05-28T19:46:23.019Z,3.10
2019-05-28T19:48:51.416Z,2.80
2019-05-28T19:51:19.832Z,3.40
2019-05-28T19:53:48.338Z,2.73
2019-05-28T19:56:16.811Z,2.63
2019-05-28T19:58:45.208Z,2.60
2019-05-28T20:01:13.647Z,2.90
2019-05-28T20:03:42.057Z,2.40
2019-05-28T20:06:10.453Z,2.70
2019-05-28T20:08:38.995Z,2.40
2019-05-28T20:11:07.472Z,2.33
2019-05-28T20:13:35.869Z,2.53
2019-05-28T20:16:04.439Z,2.70
2019-05-28T20:18:33.005Z,2.50
2019-05-28T20:21:01.474Z,2.43
2019-05-28T20:23:29.905Z,2.77
2019-05-28T20:25:58.395Z,2.77
2019-05-28T20:28:26.790Z,2.53
2019-05-28T20:30:55.261Z,2.20
2019-05-28T20:33:23.667Z,2.37
2019-05-28T20:35:52.076Z,2.17
2019-05-28T20:38:20.653Z,2.10
2019-05-28T20:40:49.049Z,2.00
2019-05-28T20:43:17.517Z,2.53
2019-05-28T20:45:46.165Z,2.00
2019-05-28T20:48:14.570Z,2.20
2019-05-28T20:50:44.505Z,2.30
2019-05-28T20:53:13.026Z,2.07
2019-05-28T20:55:41.411Z,2.00
2019-05-28T20:58:09.879Z,1.97
2019-05-28T21:00:38.371Z,1.90
2019-05-28T21:03:06.776Z,2.00
2019-05-28T21:05:35.176Z,1.97
2019-05-28T21:08:03.689Z,24.10
2019-05-28T21:10:32.166Z,31.27
2019-05-28T21:13:00.557Z,8.83
2019-05-28T21:15:29.140Z,2.03
2019-05-28T21:17:57.624Z,11.00
2019-05-28T21:20:26.108Z,20.53
2019-05-28T21:22:55.781Z,26.80
2019-05-28T21:25:24.425Z,5.97
2019-05-28T21:27:52.829Z,15.90
2019-05-28T21:30:21.833Z,12.90
2019-05-28T21:32:50.676Z,2.30
2019-05-28T21:35:19.165Z,1.90
2019-05-28T21:37:47.593Z,2.03
2019-05-28T21:40:16.531Z,2.27
2019-05-28T21:42:58.445Z,2.30
2019-05-28T21:45:15.797Z,2.20
2019-05-28T21:47:44.198Z,2.10
2019-05-28T21:50:13.140Z,2.17
2019-05-28T21:52:41.811Z,2.20
2019-05-28T21:55:10.949Z,2.30
2019-05-28T21:57:39.350Z,1.97
2019-05-28T22:00:18.268Z,3.20
2019-05-28T22:02:46.728Z,4.53
2019-05-28T22:05:15.561Z,4.17
2019-05-28T22:07:44.108Z,3.43
2019-05-28T22:10:13.049Z,3.50
2019-05-28T22:12:41.441Z,3.40
2019-05-28T22:15:10.404Z,4.20
2019-05-28T22:17:38.800Z,2.63
2019-05-28T22:20:08.785Z,2.73
2019-05-28T22:22:37.338Z,2.80
2019-05-28T22:25:09.221Z,2.47
2019-05-28T22:27:37.618Z,2.30
2019-05-28T22:30:08.590Z,2.60
2019-05-28T22:32:37.057Z,2.47
2019-05-28T22:35:08.222Z,2.70
2019-05-28T22:37:36.664Z,2.90
2019-05-28T22:40:08.142Z,2.50
2019-05-28T22:42:36.605Z,2.27
2019-05-28T22:45:09.271Z,2.30
2019-05-28T22:47:37.660Z,2.10
2019-05-28T22:50:19.542Z,2.40
2019-05-28T22:52:39.662Z,2.10
2019-05-28T22:55:11.128Z,2.17
2019-05-28T22:57:39.527Z,2.40
2019-05-28T23:00:09.386Z,1.80
2019-05-28T23:02:37.777Z,2.30
2019-05-28T23:05:07.359Z,2.60
2019-05-28T23:07:35.929Z,2.50
2019-05-28T23:10:07.906Z,2.80
2019-05-28T23:12:36.416Z,2.63
2019-05-28T23:15:08.383Z,2.53
2019-05-28T23:17:36.778Z,2.60
2019-05-28T23:20:12.093Z,2.50
2019-05-28T23:22:40.584Z,2.07
2019-05-28T23:25:09.850Z,2.40
2019-05-28T23:27:38.217Z,2.40
2019-05-28T23:30:21.414Z,2.10
2019-05-28T23:32:38.210Z,2.03
2019-05-28T23:35:08.722Z,2.77
2019-05-28T23:37:37.488Z,2.30
2019-05-28T23:40:09.182Z,2.60
2019-05-28T23:42:38.016Z,2.50
2019-05-28T23:45:07.774Z,2.60
2019-05-28T23:47:36.395Z,2.80
2019-05-28T23:50:06.810Z,2.50
2019-05-28T23:52:35.425Z,3.00
2019-05-28T23:55:05.751Z,3.30
2019-05-28T23:57:34.228Z,2.80
